createdAt,value
2017-09-13T00:01:30.031Z,2.10
2017-09-13T00:03:57.538Z,1.40
2017-09-13T00:06:25.331Z,2.00
2017-09-13T00:08:53.490Z,1.70
2017-09-13T00:11:21.029Z,1.83
2017-09-13T00:13:48.557Z,1.40
2017-09-13T00:16:16.822Z,2.03
2017-09-13T00:18:44.312Z,2.07
2017-09-13T00:21:12.119Z,1.83
2017-09-13T00:23:39.612Z,2.13
2017-09-13T00:26:07.901Z,1.90
2017-09-13T00:28:35.398Z,2.07
2017-09-13T00:31:02.921Z,2.43
2017-09-13T00:33:30.744Z,1.90
2017-09-13T00:35:58.245Z,1.90
2017-09-13T00:38:25.818Z,2.00
2017-09-13T00:40:53.328Z,1.60
2017-09-13T00:43:20.836Z,2.40
2017-09-13T00:45:48.361Z,2.10
2017-09-13T00:48:16.657Z,2.00
2017-09-13T00:50:44.200Z,1.77
2017-09-13T00:53:11.708Z,1.70
2017-09-13T00:55:39.268Z,1.90
2017-09-13T00:58:06.773Z,1.70
2017-09-13T01:00:34.276Z,2.43
2017-09-13T01:03:01.796Z,1.60
2017-09-13T01:05:29.293Z,1.70
2017-09-13T01:07:56.884Z,1.70
2017-09-13T01:10:25.148Z,2.13
2017-09-13T01:12:53.431Z,2.27
2017-09-13T01:15:21.716Z,1.50
2017-09-13T01:17:49.988Z,1.93
2017-09-13T01:20:18.264Z,1.50
2017-09-13T01:22:46.521Z,1.80
2017-09-13T01:25:14.035Z,1.93
2017-09-13T01:27:41.533Z,1.70
2017-09-13T01:30:09.064Z,1.90
2017-09-13T01:32:36.554Z,1.70
2017-09-13T01:35:04.830Z,1.60
2017-09-13T01:37:32.360Z,1.97
2017-09-13T01:39:59.856Z,1.70
2017-09-13T01:42:28.142Z,1.80
2017-09-13T01:44:55.654Z,1.43
2017-09-13T01:47:23.208Z,2.00
2017-09-13T01:49:50.710Z,2.53
2017-09-13T01:52:19.017Z,1.73
2017-09-13T01:54:46.548Z,2.00
2017-09-13T01:57:14.800Z,2.47
2017-09-13T01:59:42.325Z,2.10
2017-09-13T02:02:09.817Z,2.43
2017-09-13T02:04:37.368Z,1.53
2017-09-13T02:07:04.889Z,1.60
2017-09-13T02:09:32.382Z,2.33
2017-09-13T02:11:59.889Z,2.33
2017-09-13T02:14:27.397Z,2.13
2017-09-13T02:16:56.424Z,1.77
2017-09-13T02:19:23.920Z,1.47
2017-09-13T02:21:52.171Z,1.73
2017-09-13T02:24:19.698Z,1.33
2017-09-13T02:26:47.984Z,2.30
2017-09-13T02:29:15.503Z,2.13
2017-09-13T02:31:42.996Z,1.80
2017-09-13T02:34:11.273Z,2.00
2017-09-13T02:36:39.555Z,1.87
2017-09-13T02:39:07.045Z,2.10
2017-09-13T02:41:34.548Z,2.40
2017-09-13T02:44:02.833Z,2.40
2017-09-13T02:46:31.088Z,2.00
2017-09-13T02:48:58.616Z,2.37
2017-09-13T02:51:26.124Z,1.90
2017-09-13T02:53:53.627Z,1.60
2017-09-13T02:56:21.154Z,1.93
2017-09-13T02:58:48.654Z,2.37
2017-09-13T03:01:16.181Z,2.17
2017-09-13T03:03:43.686Z,1.40
2017-09-13T03:06:11.214Z,1.43
2017-09-13T03:08:38.700Z,1.57
2017-09-13T03:11:06.185Z,2.00
2017-09-13T03:13:34.472Z,3.30
2017-09-13T03:16:01.961Z,4.40
2017-09-13T03:18:29.473Z,3.67
2017-09-13T03:20:57.748Z,3.83
2017-09-13T03:23:26.028Z,3.37
2017-09-13T03:25:54.364Z,3.47
2017-09-13T03:28:21.859Z,3.60
2017-09-13T03:30:50.155Z,3.23
2017-09-13T03:33:17.652Z,5.13
2017-09-13T03:35:45.157Z,3.43
2017-09-13T03:38:12.674Z,3.20
2017-09-13T03:40:40.174Z,4.13
2017-09-13T03:43:07.744Z,3.73
2017-09-13T03:45:35.236Z,2.83
2017-09-13T03:48:02.725Z,3.70
2017-09-13T03:50:31.005Z,3.63
2017-09-13T03:52:59.272Z,3.80
2017-09-13T03:55:27.588Z,4.27
2017-09-13T03:57:55.081Z,3.10
2017-09-13T04:00:22.589Z,2.90
2017-09-13T04:02:50.096Z,3.23
2017-09-13T04:05:17.626Z,3.40
2017-09-13T04:07:45.118Z,2.83
2017-09-13T04:10:12.622Z,3.60
2017-09-13T04:12:40.139Z,3.40
2017-09-13T04:15:08.400Z,3.13
2017-09-13T04:17:35.921Z,2.53
2017-09-13T04:20:03.416Z,2.80
2017-09-13T04:22:30.911Z,2.30
2017-09-13T04:24:58.445Z,2.90
2017-09-13T04:27:25.944Z,2.40
2017-09-13T04:29:53.491Z,2.67
2017-09-13T04:32:20.984Z,2.00
2017-09-13T04:34:48.472Z,2.40
2017-09-13T04:37:16.760Z,2.20
2017-09-13T04:39:45.052Z,2.10
2017-09-13T04:42:12.571Z,1.50
2017-09-13T04:44:40.077Z,1.70
2017-09-13T04:47:07.608Z,2.47
2017-09-13T04:49:35.900Z,2.37
2017-09-13T04:52:03.405Z,2.10
2017-09-13T04:54:30.900Z,2.17
2017-09-13T04:56:59.181Z,1.80
2017-09-13T04:59:27.476Z,1.70
2017-09-13T05:01:54.989Z,2.00
2017-09-13T05:04:22.477Z,1.90
2017-09-13T05:06:49.998Z,2.53
2017-09-13T05:09:17.499Z,2.20
2017-09-13T05:11:45.029Z,2.43
2017-09-13T05:14:13.287Z,2.87
2017-09-13T05:16:40.784Z,3.63
2017-09-13T05:19:08.306Z,3.23
2017-09-13T05:21:36.574Z,3.83
2017-09-13T05:24:04.064Z,3.50
2017-09-13T05:26:32.340Z,3.30
2017-09-13T05:28:59.832Z,2.90
2017-09-13T05:31:27.348Z,2.63
2017-09-13T05:33:55.649Z,2.23
2017-09-13T05:36:23.149Z,2.60
2017-09-13T05:38:50.669Z,2.30
2017-09-13T05:41:18.209Z,2.27
2017-09-13T05:43:45.709Z,2.30
2017-09-13T05:46:13.216Z,2.87
2017-09-13T05:48:42.262Z,1.73
2017-09-13T05:51:09.757Z,2.03
2017-09-13T05:53:38.044Z,1.57
2017-09-13T05:56:06.300Z,2.07
2017-09-13T05:58:33.817Z,1.80
2017-09-13T06:01:01.304Z,2.20
2017-09-13T06:03:28.827Z,2.30
2017-09-13T06:05:56.320Z,1.93
2017-09-13T06:08:23.832Z,1.83
2017-09-13T06:10:51.353Z,1.73
2017-09-13T06:13:19.609Z,1.50
2017-09-13T06:15:47.136Z,1.53
2017-09-13T06:18:14.632Z,1.50
2017-09-13T06:20:42.938Z,1.90
2017-09-13T06:23:10.435Z,1.50
2017-09-13T06:25:37.941Z,2.10
2017-09-13T06:28:06.288Z,2.10
2017-09-13T06:30:33.786Z,1.40
2017-09-13T06:33:01.324Z,1.70
2017-09-13T06:35:29.598Z,2.00
2017-09-13T06:37:57.880Z,2.20
2017-09-13T06:40:26.172Z,2.23
2017-09-13T06:42:53.652Z,1.90
2017-09-13T06:45:21.142Z,1.90
2017-09-13T06:47:48.667Z,1.70
2017-09-13T06:50:16.189Z,1.50
2017-09-13T06:52:44.452Z,2.30
2017-09-13T06:55:12.704Z,1.43
2017-09-13T06:57:40.210Z,1.50
2017-09-13T07:00:07.704Z,1.90
2017-09-13T07:02:35.244Z,1.40
2017-09-13T07:05:02.738Z,1.63
2017-09-13T07:07:30.363Z,1.37
2017-09-13T07:09:57.931Z,1.30
2017-09-13T07:12:25.430Z,1.53
2017-09-13T07:14:53.724Z,1.87
2017-09-13T07:17:22.004Z,1.50
2017-09-13T07:19:49.506Z,1.90
2017-09-13T07:22:17.025Z,1.60
2017-09-13T07:24:44.548Z,1.60
2017-09-13T07:27:13.548Z,1.50
2017-09-13T07:29:41.828Z,1.57
2017-09-13T07:32:10.087Z,2.17
2017-09-13T07:34:38.361Z,1.37
2017-09-13T07:37:05.968Z,1.63
2017-09-13T07:39:33.499Z,1.80
2017-09-13T07:42:01.756Z,1.53
2017-09-13T07:44:29.273Z,1.67
2017-09-13T07:46:56.820Z,1.40
2017-09-13T07:49:24.308Z,1.60
2017-09-13T07:51:51.834Z,1.60
2017-09-13T07:54:19.321Z,1.80
2017-09-13T07:56:46.877Z,1.40
2017-09-13T07:59:14.371Z,1.50
2017-09-13T08:01:42.640Z,1.40
2017-09-13T08:04:10.923Z,2.27
2017-09-13T08:06:39.177Z,2.13
2017-09-13T08:09:07.472Z,1.53
2017-09-13T08:11:35.974Z,1.73
2017-09-13T08:14:03.537Z,1.43
2017-09-13T08:16:31.042Z,1.40
2017-09-13T08:18:58.536Z,1.57
2017-09-13T08:21:26.817Z,1.60
2017-09-13T08:23:54.305Z,1.50
2017-09-13T08:26:21.796Z,1.20
2017-09-13T08:28:49.328Z,1.40
2017-09-13T08:31:16.819Z,1.20
2017-09-13T08:33:44.330Z,1.40
2017-09-13T08:36:11.818Z,1.60
2017-09-13T08:38:39.352Z,1.73
2017-09-13T08:41:06.853Z,1.90
2017-09-13T08:43:35.120Z,1.57
2017-09-13T08:46:02.646Z,1.10
2017-09-13T08:48:30.145Z,1.37
2017-09-13T08:50:58.430Z,1.50
2017-09-13T08:53:26.705Z,1.63
2017-09-13T08:55:54.981Z,1.20
2017-09-13T08:58:23.244Z,1.50
2017-09-13T09:00:51.508Z,1.67
2017-09-13T09:03:19.804Z,1.10
2017-09-13T09:05:48.072Z,1.17
2017-09-13T09:08:16.345Z,1.30
2017-09-13T09:10:43.839Z,1.80
2017-09-13T09:13:11.356Z,1.17
2017-09-13T09:15:39.652Z,0.93
2017-09-13T09:18:07.146Z,1.00
2017-09-13T09:20:34.683Z,1.30
2017-09-13T09:23:02.177Z,1.23
2017-09-13T09:25:29.680Z,1.43
2017-09-13T09:27:57.960Z,1.20
2017-09-13T09:30:25.479Z,0.80
2017-09-13T09:32:53.793Z,1.10
2017-09-13T09:35:21.288Z,1.17
2017-09-13T09:37:48.783Z,1.10
2017-09-13T09:40:16.336Z,1.13
2017-09-13T09:42:43.836Z,0.90
2017-09-13T09:45:11.380Z,1.03
2017-09-13T09:47:38.885Z,1.10
2017-09-13T09:50:06.418Z,0.80
2017-09-13T09:52:33.917Z,1.03
2017-09-13T09:55:01.408Z,0.80
2017-09-13T09:57:28.922Z,1.40
2017-09-13T09:59:56.456Z,1.00
2017-09-13T10:02:23.988Z,1.00
2017-09-13T10:04:51.492Z,1.10
2017-09-13T10:07:18.981Z,1.27
2017-09-13T10:09:47.263Z,0.80
2017-09-13T10:12:15.585Z,1.00
2017-09-13T10:14:43.117Z,0.80
2017-09-13T10:17:10.627Z,1.07
2017-09-13T10:19:38.894Z,1.10
2017-09-13T10:22:06.420Z,1.00
2017-09-13T10:24:33.925Z,1.10
2017-09-13T10:27:01.457Z,0.90
2017-09-13T10:29:28.962Z,0.80
2017-09-13T10:31:57.248Z,0.93
2017-09-13T10:34:24.752Z,1.20
2017-09-13T10:36:52.244Z,0.80
2017-09-13T10:39:20.529Z,0.90
2017-09-13T10:41:48.781Z,1.00
2017-09-13T10:44:16.315Z,0.90
2017-09-13T10:46:43.829Z,1.13
2017-09-13T10:49:11.350Z,0.97
2017-09-13T10:51:38.846Z,0.90
2017-09-13T10:54:06.397Z,0.80
2017-09-13T10:56:33.905Z,1.00
2017-09-13T10:59:01.443Z,0.80
2017-09-13T11:01:28.934Z,0.80
2017-09-13T11:03:56.437Z,0.90
2017-09-13T11:06:23.956Z,0.87
2017-09-13T11:08:51.456Z,0.90
2017-09-13T11:11:18.979Z,0.90
2017-09-13T11:13:47.252Z,1.03
2017-09-13T11:16:15.524Z,0.80
2017-09-13T11:18:43.815Z,0.93
2017-09-13T11:21:12.093Z,0.80
2017-09-13T11:23:40.377Z,0.80
2017-09-13T11:26:07.877Z,0.90
2017-09-13T11:28:35.402Z,0.70
2017-09-13T11:31:02.946Z,0.90
2017-09-13T11:33:30.453Z,0.90
2017-09-13T11:35:57.974Z,0.77
2017-09-13T11:38:25.469Z,0.90
2017-09-13T11:40:53.958Z,0.90
2017-09-13T11:43:21.448Z,0.80
2017-09-13T11:45:49.728Z,0.90
2017-09-13T11:48:18.045Z,0.90
2017-09-13T11:50:45.553Z,0.70
2017-09-13T11:53:13.815Z,0.80
2017-09-13T11:55:41.351Z,1.00
2017-09-13T11:58:08.881Z,0.90
2017-09-13T12:00:36.369Z,0.90
2017-09-13T12:03:03.896Z,0.83
2017-09-13T12:05:31.386Z,0.90
2017-09-13T12:07:58.922Z,0.70
2017-09-13T12:10:26.423Z,0.70
2017-09-13T12:12:54.712Z,0.87
2017-09-13T12:15:22.224Z,0.90
2017-09-13T12:17:49.736Z,0.70
2017-09-13T12:20:17.255Z,0.80
2017-09-13T12:22:44.753Z,1.10
2017-09-13T12:25:12.281Z,0.80
2017-09-13T12:27:39.780Z,0.80
2017-09-13T12:30:07.285Z,0.80
2017-09-13T12:32:34.797Z,0.87
2017-09-13T12:35:02.305Z,0.60
2017-09-13T12:37:30.598Z,1.00
2017-09-13T12:39:58.129Z,0.90
2017-09-13T12:42:25.670Z,0.80
2017-09-13T12:44:53.166Z,0.80
2017-09-13T12:47:21.432Z,0.70
2017-09-13T12:49:49.722Z,0.83
2017-09-13T12:52:17.989Z,0.80
2017-09-13T12:54:46.269Z,1.00
2017-09-13T12:57:14.529Z,1.13
2017-09-13T12:59:42.840Z,0.83
2017-09-13T13:02:10.334Z,0.80
2017-09-13T13:04:37.828Z,0.80
2017-09-13T13:07:06.208Z,0.77
2017-09-13T13:09:34.508Z,0.70
2017-09-13T13:12:02.054Z,1.00
2017-09-13T13:14:30.308Z,1.10
2017-09-13T13:16:57.869Z,0.83
2017-09-13T13:19:26.145Z,0.90
2017-09-13T13:21:54.414Z,0.80
2017-09-13T13:24:21.939Z,0.80
2017-09-13T13:26:49.441Z,0.93
2017-09-13T13:29:17.736Z,1.07
2017-09-13T13:31:45.224Z,1.00
2017-09-13T13:34:12.787Z,0.97
2017-09-13T13:36:40.282Z,0.90
2017-09-13T13:39:08.558Z,1.03
2017-09-13T13:41:36.840Z,1.20
2017-09-13T13:44:05.104Z,1.10
2017-09-13T13:46:32.685Z,1.10
2017-09-13T13:49:00.215Z,1.00
2017-09-13T13:51:28.472Z,1.00
2017-09-13T13:53:56.076Z,1.20
2017-09-13T13:56:23.584Z,1.03
2017-09-13T13:58:51.105Z,0.97
2017-09-13T14:01:18.612Z,1.00
2017-09-13T14:03:47.705Z,0.87
2017-09-13T14:06:15.238Z,1.00
2017-09-13T14:08:42.749Z,1.10
2017-09-13T14:11:11.041Z,1.00
2017-09-13T14:13:38.602Z,1.10
2017-09-13T14:16:06.195Z,0.93
2017-09-13T14:18:33.707Z,1.10
2017-09-13T14:21:01.272Z,1.00
2017-09-13T14:23:28.784Z,0.77
2017-09-13T14:25:56.280Z,0.80
2017-09-13T14:28:24.609Z,0.70
2017-09-13T14:30:52.114Z,0.80
2017-09-13T14:33:20.424Z,0.77
2017-09-13T14:35:47.926Z,0.80
2017-09-13T14:38:15.433Z,0.80
2017-09-13T14:40:42.952Z,0.70
2017-09-13T14:43:11.248Z,0.80
2017-09-13T14:45:38.771Z,0.80
2017-09-13T14:48:06.282Z,0.80
2017-09-13T14:50:33.824Z,0.70
2017-09-13T14:53:01.329Z,0.80
2017-09-13T14:55:28.832Z,0.70
2017-09-13T14:57:56.355Z,0.80
2017-09-13T15:00:24.633Z,0.70
2017-09-13T15:02:52.184Z,0.80
2017-09-13T15:05:19.690Z,0.73
2017-09-13T15:07:47.207Z,0.80
2017-09-13T15:10:14.715Z,0.80
2017-09-13T15:12:42.285Z,0.80
2017-09-13T15:15:09.778Z,0.60
2017-09-13T15:17:37.298Z,0.70
2017-09-13T15:20:04.837Z,0.90
2017-09-13T15:22:32.331Z,0.70
2017-09-13T15:24:59.852Z,0.80
2017-09-13T15:27:27.359Z,0.73
2017-09-13T15:29:55.648Z,0.80
2017-09-13T15:32:23.180Z,0.70
2017-09-13T15:34:50.711Z,0.77
2017-09-13T15:37:18.250Z,0.83
2017-09-13T15:39:45.811Z,0.80
2017-09-13T15:42:13.352Z,0.70
2017-09-13T15:44:41.625Z,0.80
2017-09-13T15:47:09.900Z,0.90
2017-09-13T15:49:38.187Z,0.80
2017-09-13T15:52:05.697Z,0.90
2017-09-13T15:54:33.217Z,0.90
2017-09-13T15:57:00.716Z,0.70
2017-09-13T15:59:28.264Z,0.67
2017-09-13T16:01:55.777Z,0.87
2017-09-13T16:04:23.288Z,0.80
2017-09-13T16:06:50.815Z,0.70
2017-09-13T16:09:18.463Z,0.73
2017-09-13T16:11:45.997Z,0.70
2017-09-13T16:14:14.274Z,0.90
2017-09-13T16:16:42.575Z,0.90
2017-09-13T16:19:10.104Z,0.70
2017-09-13T16:21:38.376Z,0.80
2017-09-13T16:24:06.706Z,0.80
2017-09-13T16:26:34.209Z,0.80
2017-09-13T16:29:02.484Z,0.80
2017-09-13T16:31:30.778Z,0.70
2017-09-13T16:33:58.303Z,0.70
2017-09-13T16:36:25.835Z,0.80
2017-09-13T16:38:53.352Z,0.80
2017-09-13T16:41:20.873Z,0.80
2017-09-13T16:43:48.406Z,0.67
2017-09-13T16:46:15.912Z,0.87
2017-09-13T16:48:44.223Z,0.70
2017-09-13T16:51:11.753Z,0.90
2017-09-13T16:53:40.050Z,0.80
2017-09-13T16:56:07.542Z,0.70
2017-09-13T16:58:35.053Z,0.80
2017-09-13T17:01:02.564Z,0.80
2017-09-13T17:03:30.101Z,0.60
2017-09-13T17:05:57.639Z,0.73
2017-09-13T17:08:25.129Z,0.70
2017-09-13T17:10:52.672Z,0.70
2017-09-13T17:13:20.186Z,0.80
2017-09-13T17:15:47.702Z,0.60
2017-09-13T17:18:15.233Z,0.70
2017-09-13T17:20:42.752Z,0.83
2017-09-13T17:23:11.049Z,0.70
2017-09-13T17:25:38.551Z,0.70
2017-09-13T17:28:06.077Z,0.60
2017-09-13T17:30:33.605Z,0.70
2017-09-13T17:33:01.935Z,0.70
2017-09-13T17:35:29.434Z,0.80
2017-09-13T17:37:57.023Z,0.60
2017-09-13T17:40:24.529Z,0.70
2017-09-13T17:42:52.024Z,0.60
2017-09-13T17:45:19.553Z,0.70
2017-09-13T17:47:47.066Z,0.60
2017-09-13T17:50:14.608Z,0.83
2017-09-13T17:52:42.113Z,0.70
2017-09-13T17:55:09.645Z,0.80
2017-09-13T17:57:37.176Z,0.70
2017-09-13T18:00:04.711Z,0.70
2017-09-13T18:02:32.997Z,0.80
2017-09-13T18:05:00.507Z,0.80
2017-09-13T18:07:28.039Z,0.70
2017-09-13T18:09:55.588Z,0.70
2017-09-13T18:12:23.124Z,0.70
2017-09-13T18:14:51.394Z,0.70
2017-09-13T18:17:19.697Z,0.67
2017-09-13T18:19:47.208Z,0.80
2017-09-13T18:22:16.213Z,0.80
2017-09-13T18:24:44.547Z,0.80
2017-09-13T18:27:12.064Z,0.90
2017-09-13T18:29:39.617Z,0.90
2017-09-13T18:32:07.916Z,0.80
2017-09-13T18:34:35.471Z,0.80
2017-09-13T18:37:03.029Z,1.00
2017-09-13T18:39:30.537Z,0.90
2017-09-13T18:41:58.061Z,0.70
2017-09-13T18:44:25.602Z,0.80
2017-09-13T18:46:53.112Z,0.90
2017-09-13T18:49:21.436Z,0.80
2017-09-13T18:51:49.034Z,0.90
2017-09-13T18:54:16.568Z,0.83
2017-09-13T18:56:44.066Z,1.10
2017-09-13T18:59:11.587Z,0.80
2017-09-13T19:01:39.134Z,0.87
2017-09-13T19:04:06.649Z,1.00
2017-09-13T19:06:34.974Z,1.00
2017-09-13T19:09:02.493Z,0.90
2017-09-13T19:11:30.769Z,0.90
2017-09-13T19:13:59.057Z,1.13
2017-09-13T19:16:26.586Z,1.57
2017-09-13T19:18:55.620Z,1.17
2017-09-13T19:21:23.114Z,1.20
2017-09-13T19:23:50.702Z,1.53
2017-09-13T19:26:18.998Z,1.23
2017-09-13T19:28:46.520Z,1.00
2017-09-13T19:31:15.545Z,1.60
2017-09-13T19:33:43.057Z,1.20
2017-09-13T19:36:10.627Z,1.27
2017-09-13T19:38:38.147Z,1.73
2017-09-13T19:41:05.661Z,1.80
2017-09-13T19:43:33.983Z,1.30
2017-09-13T19:46:01.513Z,1.60
2017-09-13T19:48:29.037Z,1.63
2017-09-13T19:50:56.554Z,1.70
2017-09-13T19:53:24.063Z,1.80
2017-09-13T19:55:52.397Z,1.30
2017-09-13T19:58:19.932Z,1.20
2017-09-13T20:00:47.469Z,1.70
2017-09-13T20:03:14.978Z,1.13
2017-09-13T20:05:42.530Z,1.13
2017-09-13T20:08:10.057Z,1.10
2017-09-13T20:10:37.569Z,1.00
2017-09-13T20:13:05.112Z,1.07
2017-09-13T20:15:32.618Z,0.80
2017-09-13T20:18:00.203Z,0.73
2017-09-13T20:20:27.724Z,0.70
2017-09-13T20:22:56.015Z,1.00
2017-09-13T20:25:23.551Z,0.80
2017-09-13T20:27:51.813Z,1.00
2017-09-13T20:30:19.372Z,0.80
2017-09-13T20:32:47.637Z,1.10
2017-09-13T20:35:15.153Z,0.80
2017-09-13T20:37:42.693Z,1.00
2017-09-13T20:40:10.206Z,0.70
2017-09-13T20:42:37.740Z,0.80
2017-09-13T20:45:05.237Z,0.90
2017-09-13T20:47:32.852Z,0.87
2017-09-13T20:50:00.390Z,1.10
2017-09-13T20:52:27.905Z,0.80
2017-09-13T20:54:55.437Z,0.80
2017-09-13T20:57:22.935Z,0.90
2017-09-13T20:59:50.442Z,0.70
2017-09-13T21:02:17.970Z,0.80
2017-09-13T21:04:45.477Z,0.83
2017-09-13T21:07:13.041Z,1.00
2017-09-13T21:09:40.547Z,0.73
2017-09-13T21:12:08.097Z,0.80
2017-09-13T21:14:36.422Z,0.80
2017-09-13T21:17:03.938Z,1.30
2017-09-13T21:19:31.469Z,0.70
2017-09-13T21:21:58.993Z,0.97
2017-09-13T21:24:26.533Z,0.80
2017-09-13T21:26:54.053Z,0.80
2017-09-13T21:29:22.331Z,0.83
2017-09-13T21:31:50.634Z,0.80
2017-09-13T21:34:18.144Z,0.80
2017-09-13T21:36:45.713Z,0.80
2017-09-13T21:39:13.992Z,0.80
2017-09-13T21:41:42.267Z,0.80
2017-09-13T21:44:10.553Z,0.73
2017-09-13T21:46:38.840Z,0.63
2017-09-13T21:49:06.410Z,0.70
2017-09-13T21:51:33.949Z,0.80
2017-09-13T21:54:01.488Z,1.00
2017-09-13T21:56:29.048Z,0.90
2017-09-13T21:58:56.587Z,0.90
2017-09-13T22:01:24.095Z,0.80
2017-09-13T22:03:51.596Z,0.83
2017-09-13T22:06:19.145Z,0.90
2017-09-13T22:08:46.645Z,0.80
2017-09-13T22:11:15.097Z,0.80
2017-09-13T22:13:42.638Z,0.70
2017-09-13T22:16:10.225Z,0.90
2017-09-13T22:18:37.846Z,0.70
2017-09-13T22:21:05.361Z,0.70
2017-09-13T22:23:33.674Z,0.90
2017-09-13T22:26:01.168Z,0.80
2017-09-13T22:28:28.686Z,0.70
2017-09-13T22:30:56.233Z,0.70
2017-09-13T22:33:23.861Z,0.83
2017-09-13T22:35:51.398Z,0.80
2017-09-13T22:38:20.456Z,0.80
2017-09-13T22:40:47.981Z,0.80
2017-09-13T22:43:16.277Z,0.70
2017-09-13T22:45:43.812Z,0.83
2017-09-13T22:48:12.093Z,0.80
2017-09-13T22:50:39.613Z,0.80
2017-09-13T22:53:07.126Z,0.70
2017-09-13T22:55:34.689Z,0.70
2017-09-13T22:58:02.201Z,0.80
2017-09-13T23:00:29.705Z,0.70
2017-09-13T23:02:57.234Z,0.80
2017-09-13T23:05:26.140Z,0.80
2017-09-13T23:07:53.630Z,0.80
2017-09-13T23:10:21.125Z,0.80
2017-09-13T23:12:48.685Z,0.70
2017-09-13T23:15:16.189Z,0.90
2017-09-13T23:17:43.844Z,0.90
2017-09-13T23:20:11.387Z,0.80
2017-09-13T23:22:38.888Z,0.80
2017-09-13T23:25:06.383Z,0.80
2017-09-13T23:27:34.708Z,0.90
2017-09-13T23:30:02.241Z,0.90
2017-09-13T23:32:29.761Z,0.83
2017-09-13T23:34:57.272Z,0.67
2017-09-13T23:37:24.802Z,0.70
2017-09-13T23:39:53.053Z,0.80
2017-09-13T23:42:20.580Z,0.60
2017-09-13T23:44:48.092Z,0.90
2017-09-13T23:47:16.344Z,0.70
2017-09-13T23:49:43.864Z,0.80
2017-09-13T23:52:11.352Z,0.80
2017-09-13T23:54:38.894Z,1.20
2017-09-13T23:57:06.417Z,0.80
2017-09-13T23:59:33.920Z,0.70
